sensor_id;sensor_type;location;lat;lon;timestamp;pressure;altitude;pressure_sealevel;temperature;humidity
59531;BME280;45349;48.692;8.186;2023-02-03T00:01:38;100124.97;;;5.39;94.88
59531;BME280;45349;48.692;8.186;2023-02-03T00:04:05;100125.03;;;5.37;95.07
59531;BME280;45349;48.692;8.186;2023-02-03T00:06:32;100136.09;;;5.41;94.77
59531;BME280;45349;48.692;8.186;2023-02-03T00:08:59;100128.47;;;5.38;95.11
59531;BME280;45349;48.692;8.186;2023-02-03T00:11:28;100118.19;;;5.36;95.35
59531;BME280;45349;48.692;8.186;2023-02-03T00:13:55;100121.69;;;5.35;95.17
59531;BME280;45349;48.692;8.186;2023-02-03T00:16:22;100123.34;;;5.36;94.80
59531;BME280;45349;48.692;8.186;2023-02-03T00:18:48;100125.94;;;5.36;94.74
59531;BME280;45349;48.692;8.186;2023-02-03T00:21:15;100114.63;;;5.39;94.45
59531;BME280;45349;48.692;8.186;2023-02-03T00:23:42;100116.34;;;5.38;94.29
59531;BME280;45349;48.692;8.186;2023-02-03T00:26:10;100114.78;;;5.36;94.91
59531;BME280;45349;48.692;8.186;2023-02-03T00:28:41;100113.91;;;5.35;95.38
59531;BME280;45349;48.692;8.186;2023-02-03T00:31:14;100119.25;;;5.32;95.43
59531;BME280;45349;48.692;8.186;2023-02-03T00:33:40;100115.59;;;5.36;94.94
59531;BME280;45349;48.692;8.186;2023-02-03T00:36:08;100113.91;;;5.35;94.68
59531;BME280;45349;48.692;8.186;2023-02-03T00:38:35;100121.47;;;5.40;93.99
59531;BME280;45349;48.692;8.186;2023-02-03T00:41:02;100129.22;;;5.40;93.87
59531;BME280;45349;48.692;8.186;2023-02-03T00:43:29;100136.91;;;5.41;94.52
59531;BME280;45349;48.692;8.186;2023-02-03T00:45:57;100124.81;;;5.42;93.97
59531;BME280;45349;48.692;8.186;2023-02-03T00:48:23;100115.22;;;5.44;93.12
59531;BME280;45349;48.692;8.186;2023-02-03T00:50:50;100114.34;;;5.43;92.97
59531;BME280;45349;48.692;8.186;2023-02-03T00:53:17;100121.31;;;5.43;93.31
59531;BME280;45349;48.692;8.186;2023-02-03T00:55:43;100112.78;;;5.41;93.42
59531;BME280;45349;48.692;8.186;2023-02-03T00:58:10;100110.94;;;5.43;93.41
59531;BME280;45349;48.692;8.186;2023-02-03T01:00:36;100119.53;;;5.43;92.72
59531;BME280;45349;48.692;8.186;2023-02-03T01:03:04;100105.84;;;5.41;93.36
59531;BME280;45349;48.692;8.186;2023-02-03T01:05:31;100109.34;;;5.40;93.56
59531;BME280;45349;48.692;8.186;2023-02-03T01:07:59;100105.94;;;5.40;93.57
59531;BME280;45349;48.692;8.186;2023-02-03T01:10:26;100098.31;;;5.37;93.78
59531;BME280;45349;48.692;8.186;2023-02-03T01:12:52;100104.31;;;5.37;93.98
59531;BME280;45349;48.692;8.186;2023-02-03T01:15:19;100100.81;;;5.38;94.41
59531;BME280;45349;48.692;8.186;2023-02-03T01:17:46;100108.50;;;5.40;94.87
59531;BME280;45349;48.692;8.186;2023-02-03T01:20:14;100106.00;;;5.38;94.51
59531;BME280;45349;48.692;8.186;2023-02-03T01:22:41;100100.06;;;5.36;94.66
59531;BME280;45349;48.692;8.186;2023-02-03T01:25:08;100109.50;;;5.37;95.37
59531;BME280;45349;48.692;8.186;2023-02-03T01:27:36;100099.13;;;5.37;95.66
59531;BME280;45349;48.692;8.186;2023-02-03T01:30:04;100102.66;;;5.36;95.59
59531;BME280;45349;48.692;8.186;2023-02-03T01:32:31;100083.69;;;5.36;96.03
59531;BME280;45349;48.692;8.186;2023-02-03T01:34:57;100090.72;;;5.34;96.71
59531;BME280;45349;48.692;8.186;2023-02-03T01:37:25;100083.00;;;5.32;97.04
59531;BME280;45349;48.692;8.186;2023-02-03T01:39:53;100083.53;;;5.39;96.90
59531;BME280;45349;48.692;8.186;2023-02-03T01:42:19;100077.94;;;5.30;98.51
59531;BME280;45349;48.692;8.186;2023-02-03T01:44:47;100085.09;;;5.25;99.48
59531;BME280;45349;48.692;8.186;2023-02-03T01:47:21;100094.69;;;5.23;99.40
59531;BME280;45349;48.692;8.186;2023-02-03T01:49:51;100096.47;;;5.23;100.00
59531;BME280;45349;48.692;8.186;2023-02-03T01:52:20;100102.31;;;5.26;100.00
59531;BME280;45349;48.692;8.186;2023-02-03T01:54:49;100106.88;;;5.21;100.00
59531;BME280;45349;48.692;8.186;2023-02-03T01:57:21;100119.31;;;5.14;100.00
59531;BME280;45349;48.692;8.186;2023-02-03T01:59:49;100124.41;;;5.16;100.00
59531;BME280;45349;48.692;8.186;2023-02-03T02:02:16;100090.91;;;5.13;100.00
59531;BME280;45349;48.692;8.186;2023-02-03T02:04:50;100093.44;;;5.14;100.00
59531;BME280;45349;48.692;8.186;2023-02-03T02:07:18;100078.81;;;5.13;100.00
59531;BME280;45349;48.692;8.186;2023-02-03T02:09:45;100082.94;;;5.17;100.00
59531;BME280;45349;48.692;8.186;2023-02-03T02:12:15;100067.56;;;5.14;100.00
59531;BME280;45349;48.692;8.186;2023-02-03T02:14:42;100064.03;;;5.15;100.00
59531;BME280;45349;48.692;8.186;2023-02-03T02:17:14;100065.88;;;5.13;100.00
59531;BME280;45349;48.692;8.186;2023-02-03T02:22:57;100030.31;;;5.17;100.00
59531;BME280;45349;48.692;8.186;2023-02-03T02:25:44;100007.09;;;5.15;100.00
59531;BME280;45349;48.692;8.186;2023-02-03T02:34:06;99995.31;;;5.10;100.00
59531;BME280;45349;48.692;8.186;2023-02-03T02:36:43;99997.81;;;5.11;100.00
59531;BME280;45349;48.692;8.186;2023-02-03T02:39:21;100000.25;;;5.14;100.00
59531;BME280;45349;48.692;8.186;2023-02-03T02:41:55;99994.00;;;5.19;100.00
59531;BME280;45349;48.692;8.186;2023-02-03T02:44:27;99995.66;;;5.20;100.00
59531;BME280;45349;48.692;8.186;2023-02-03T02:47:01;100001.44;;;5.25;99.87
59531;BME280;45349;48.692;8.186;2023-02-03T02:49:37;99998.69;;;5.28;99.63
59531;BME280;45349;48.692;8.186;2023-02-03T02:52:06;99984.81;;;5.29;99.75
59531;BME280;45349;48.692;8.186;2023-02-03T02:54:37;99984.06;;;5.27;99.97
59531;BME280;45349;48.692;8.186;2023-02-03T02:57:09;99984.81;;;5.29;100.00
59531;BME280;45349;48.692;8.186;2023-02-03T02:59:37;99975.19;;;5.31;99.49
59531;BME280;45349;48.692;8.186;2023-02-03T03:02:03;99987.16;;;5.34;99.12
59531;BME280;45349;48.692;8.186;2023-02-03T03:04:33;99978.63;;;5.31;98.82
59531;BME280;45349;48.692;8.186;2023-02-03T03:07:03;99974.19;;;5.34;98.54
59531;BME280;45349;48.692;8.186;2023-02-03T03:09:35;99977.28;;;5.40;97.02
59531;BME280;45349;48.692;8.186;2023-02-03T03:12:07;99980.78;;;5.39;96.64
59531;BME280;45349;48.692;8.186;2023-02-03T03:14:38;99973.75;;;5.41;96.71
59531;BME280;45349;48.692;8.186;2023-02-03T03:17:10;99974.63;;;5.42;96.86
59531;BME280;45349;48.692;8.186;2023-02-03T03:19:41;99970.25;;;5.42;97.08
59531;BME280;45349;48.692;8.186;2023-02-03T03:22:10;99970.94;;;5.46;97.00
59531;BME280;45349;48.692;8.186;2023-02-03T03:24:40;99971.91;;;5.43;96.95
59531;BME280;45349;48.692;8.186;2023-02-03T03:27:14;99972.09;;;5.40;96.41
59531;BME280;45349;48.692;8.186;2023-02-03T03:29:45;99971.16;;;5.41;96.78
59531;BME280;45349;48.692;8.186;2023-02-03T03:32:13;99973.75;;;5.41;97.15
59531;BME280;45349;48.692;8.186;2023-02-03T03:34:41;99966.75;;;5.43;96.71
59531;BME280;45349;48.692;8.186;2023-02-03T03:37:13;99963.16;;;5.46;96.31
59531;BME280;45349;48.692;8.186;2023-02-03T03:39:46;99976.19;;;5.44;95.91
59531;BME280;45349;48.692;8.186;2023-02-03T03:42:20;99988.31;;;5.44;96.08
59531;BME280;45349;48.692;8.186;2023-02-03T03:44:51;99991.22;;;5.54;94.79
59531;BME280;45349;48.692;8.186;2023-02-03T03:47:24;100003.50;;;5.50;95.98
59531;BME280;45349;48.692;8.186;2023-02-03T03:49:56;100017.44;;;5.47;96.97
59531;BME280;45349;48.692;8.186;2023-02-03T03:52:28;100018.38;;;5.46;97.48
59531;BME280;45349;48.692;8.186;2023-02-03T03:54:58;100033.16;;;5.44;98.82
59531;BME280;45349;48.692;8.186;2023-02-03T03:57:28;100034.75;;;5.47;98.88
59531;BME280;45349;48.692;8.186;2023-02-03T03:59:57;100042.69;;;5.44;99.51
59531;BME280;45349;48.692;8.186;2023-02-03T04:05:09;100043.84;;;5.38;100.00
59531;BME280;45349;48.692;8.186;2023-02-03T04:07:37;100048.38;;;5.35;99.99
59531;BME280;45349;48.692;8.186;2023-02-03T04:10:06;100051.13;;;5.31;100.00
59531;BME280;45349;48.692;8.186;2023-02-03T04:12:37;100050.47;;;5.28;100.00
59531;BME280;45349;48.692;8.186;2023-02-03T04:15:04;100056.41;;;5.30;99.48
59531;BME280;45349;48.692;8.186;2023-02-03T04:17:31;100055.53;;;5.29;100.00
59531;BME280;45349;48.692;8.186;2023-02-03T04:20:00;100051.13;;;5.31;99.64
59531;BME280;45349;48.692;8.186;2023-02-03T04:22:28;100051.03;;;5.33;99.07
59531;BME280;45349;48.692;8.186;2023-02-03T04:24:54;100062.13;;;5.35;98.38
59531;BME280;45349;48.692;8.186;2023-02-03T04:27:23;100049.03;;;5.38;97.63
59531;BME280;45349;48.692;8.186;2023-02-03T04:29:49;100054.19;;;5.38;97.85
59531;BME280;45349;48.692;8.186;2023-02-03T04:32:16;100045.63;;;5.38;97.71
59531;BME280;45349;48.692;8.186;2023-02-03T04:34:43;100036.06;;;5.38;97.31
59531;BME280;45349;48.692;8.186;2023-02-03T04:37:10;100022.22;;;5.39;97.41
59531;BME280;45349;48.692;8.186;2023-02-03T04:39:38;100011.25;;;5.34;97.72
59531;BME280;45349;48.692;8.186;2023-02-03T04:42:04;100018.03;;;5.37;96.98
59531;BME280;45349;48.692;8.186;2023-02-03T04:44:31;100003.50;;;5.34;97.00
59531;BME280;45349;48.692;8.186;2023-02-03T04:46:57;100007.75;;;5.35;97.50
59531;BME280;45349;48.692;8.186;2023-02-03T04:49:24;100012.00;;;5.36;97.93
59531;BME280;45349;48.692;8.186;2023-02-03T04:51:51;100018.03;;;5.37;96.77
59531;BME280;45349;48.692;8.186;2023-02-03T04:54:17;100007.59;;;5.38;96.55
59531;BME280;45349;48.692;8.186;2023-02-03T04:56:45;100012.00;;;5.36;96.66
59531;BME280;45349;48.692;8.186;2023-02-03T04:59:12;100018.03;;;5.37;96.78
59531;BME280;45349;48.692;8.186;2023-02-03T05:01:38;100037.59;;;5.42;96.18
59531;BME280;45349;48.692;8.186;2023-02-03T05:04:05;100029.81;;;5.42;97.09
59531;BME280;45349;48.692;8.186;2023-02-03T05:06:32;100024.56;;;5.44;97.03
59531;BME280;45349;48.692;8.186;2023-02-03T05:08:59;100021.97;;;5.44;96.48
59531;BME280;45349;48.692;8.186;2023-02-03T05:11:26;100032.16;;;5.47;97.06
59531;BME280;45349;48.692;8.186;2023-02-03T05:13:54;100032.06;;;5.49;95.95
59531;BME280;45349;48.692;8.186;2023-02-03T05:16:21;100024.31;;;5.49;96.18
59531;BME280;45349;48.692;8.186;2023-02-03T05:18:48;100032.25;;;5.45;96.87
59531;BME280;45349;48.692;8.186;2023-02-03T05:21:14;100022.78;;;5.44;97.00
59531;BME280;45349;48.692;8.186;2023-02-03T05:23:41;100015.94;;;5.43;96.42
59531;BME280;45349;48.692;8.186;2023-02-03T05:26:08;100013.34;;;5.43;95.58
59531;BME280;45349;48.692;8.186;2023-02-03T05:28:35;100022.03;;;5.42;95.83
59531;BME280;45349;48.692;8.186;2023-02-03T05:31:03;100017.78;;;5.41;94.61
59531;BME280;45349;48.692;8.186;2023-02-03T05:33:30;100033.25;;;5.43;94.49
59531;BME280;45349;48.692;8.186;2023-02-03T05:35:56;100021.81;;;5.47;94.07
59531;BME280;45349;48.692;8.186;2023-02-03T05:38:23;100021.72;;;5.49;93.64
59531;BME280;45349;48.692;8.186;2023-02-03T05:40:51;100018.03;;;5.53;93.80
59531;BME280;45349;48.692;8.186;2023-02-03T05:43:44;100033.50;;;5.54;92.81
59531;BME280;45349;48.692;8.186;2023-02-03T05:46:11;100032.59;;;5.55;93.56
59531;BME280;45349;48.692;8.186;2023-02-03T05:48:38;100027.47;;;5.54;93.26
59531;BME280;45349;48.692;8.186;2023-02-03T05:51:04;100033.41;;;5.56;93.23
59531;BME280;45349;48.692;8.186;2023-02-03T05:53:31;100020.47;;;5.56;93.64
59531;BME280;45349;48.692;8.186;2023-02-03T05:55:58;100034.25;;;5.56;93.43
59531;BME280;45349;48.692;8.186;2023-02-03T05:58:24;100051.53;;;5.56;93.72
59531;BME280;45349;48.692;8.186;2023-02-03T06:00:51;100033.25;;;5.59;93.33
59531;BME280;45349;48.692;8.186;2023-02-03T06:03:19;100007.16;;;5.62;93.18
59531;BME280;45349;48.692;8.186;2023-02-03T06:05:46;100021.78;;;5.63;93.38
59531;BME280;45349;48.692;8.186;2023-02-03T06:08:12;100024.22;;;5.66;93.49
59531;BME280;45349;48.692;8.186;2023-02-03T06:10:39;100011.19;;;5.68;93.16
59531;BME280;45349;48.692;8.186;2023-02-03T06:13:09;100027.66;;;5.67;94.48
59531;BME280;45349;48.692;8.186;2023-02-03T06:15:36;100023.72;;;5.59;96.59
59531;BME280;45349;48.692;8.186;2023-02-03T06:18:03;100039.50;;;5.55;97.20
59531;BME280;45349;48.692;8.186;2023-02-03T06:20:31;100057.75;;;5.53;97.32
59531;BME280;45349;48.692;8.186;2023-02-03T06:22:57;100045.72;;;5.52;98.08
59531;BME280;45349;48.692;8.186;2023-02-03T06:25:25;100018.03;;;5.53;97.50
59531;BME280;45349;48.692;8.186;2023-02-03T06:27:51;100018.97;;;5.52;98.23
59531;BME280;45349;48.692;8.186;2023-02-03T06:30:18;100011.94;;;5.54;97.37
59531;BME280;45349;48.692;8.186;2023-02-03T06:32:50;100001.69;;;5.52;98.56
59531;BME280;45349;48.692;8.186;2023-02-03T06:35:16;100007.84;;;5.50;98.78
59531;BME280;45349;48.692;8.186;2023-02-03T06:37:44;100011.53;;;5.45;99.32
59531;BME280;45349;48.692;8.186;2023-02-03T06:40:12;100011.63;;;5.44;98.81
59531;BME280;45349;48.692;8.186;2023-02-03T06:42:38;100029.06;;;5.40;100.00
59531;BME280;45349;48.692;8.186;2023-02-03T06:45:05;100026.41;;;5.42;100.00
59531;BME280;45349;48.692;8.186;2023-02-03T06:47:32;100045.34;;;5.42;100.00
59531;BME280;45349;48.692;8.186;2023-02-03T06:50:00;100042.84;;;5.41;100.00
59531;BME280;45349;48.692;8.186;2023-02-03T06:52:26;100019.47;;;5.42;100.00
59531;BME280;45349;48.692;8.186;2023-02-03T06:54:57;100034.34;;;5.39;100.00
59531;BME280;45349;48.692;8.186;2023-02-03T06:57:26;100018.81;;;5.39;100.00
59531;BME280;45349;48.692;8.186;2023-02-03T06:59:53;100029.31;;;5.36;100.00
59531;BME280;45349;48.692;8.186;2023-02-03T07:02:19;100022.22;;;5.39;100.00
59531;BME280;45349;48.692;8.186;2023-02-03T07:04:46;100013.53;;;5.40;100.00
59531;BME280;45349;48.692;8.186;2023-02-03T07:07:13;100020.22;;;5.44;100.00
59531;BME280;45349;48.692;8.186;2023-02-03T07:09:40;100024.56;;;5.44;100.00
59531;BME280;45349;48.692;8.186;2023-02-03T07:12:08;100030.41;;;5.47;100.00
59531;BME280;45349;48.692;8.186;2023-02-03T07:14:34;100027.75;;;5.49;100.00
59531;BME280;45349;48.692;8.186;2023-02-03T07:17:04;100034.59;;;5.50;99.42
59531;BME280;45349;48.692;8.186;2023-02-03T07:19:30;100035.50;;;5.49;99.59
59531;BME280;45349;48.692;8.186;2023-02-03T07:21:57;100010.38;;;5.51;100.00
59531;BME280;45349;48.692;8.186;2023-02-03T07:24:23;100006.75;;;5.54;99.37
59531;BME280;45349;48.692;8.186;2023-02-03T07:26:50;100029.09;;;5.56;98.31
59531;BME280;45349;48.692;8.186;2023-02-03T07:29:19;100024.38;;;5.63;97.63
59531;BME280;45349;48.692;8.186;2023-02-03T07:31:45;100005.34;;;5.64;98.04
59531;BME280;45349;48.692;8.186;2023-02-03T07:34:12;100014.13;;;5.61;98.20
59531;BME280;45349;48.692;8.186;2023-02-03T07:36:39;100002.56;;;5.67;97.79
59531;BME280;45349;48.692;8.186;2023-02-03T07:39:05;100019.63;;;5.71;96.97
59531;BME280;45349;48.692;8.186;2023-02-03T07:41:32;100023.41;;;5.66;96.71
59531;BME280;45349;48.692;8.186;2023-02-03T07:43:59;100023.13;;;5.70;96.29
59531;BME280;45349;48.692;8.186;2023-02-03T07:46:26;100027.91;;;5.78;95.92
59531;BME280;45349;48.692;8.186;2023-02-03T07:48:53;100008.34;;;5.72;97.22
59531;BME280;45349;48.692;8.186;2023-02-03T07:51:20;100019.78;;;5.68;97.76
59531;BME280;45349;48.692;8.186;2023-02-03T07:53:46;100028.66;;;5.64;98.38
59531;BME280;45349;48.692;8.186;2023-02-03T07:56:13;100025.13;;;5.65;98.26
59531;BME280;45349;48.692;8.186;2023-02-03T07:58:40;100043.19;;;5.67;98.38
59531;BME280;45349;48.692;8.186;2023-02-03T08:01:11;100054.66;;;5.63;99.52
59531;BME280;45349;48.692;8.186;2023-02-03T08:03:39;100069.34;;;5.62;98.85
59531;BME280;45349;48.692;8.186;2023-02-03T08:06:06;100056.91;;;5.69;98.31
59531;BME280;45349;48.692;8.186;2023-02-03T08:08:34;100069.00;;;5.68;99.21
59531;BME280;45349;48.692;8.186;2023-02-03T08:11:01;100070.84;;;5.66;98.75
59531;BME280;45349;48.692;8.186;2023-02-03T08:13:27;100084.56;;;5.68;99.78
59531;BME280;45349;48.692;8.186;2023-02-03T08:15:54;100098.44;;;5.67;100.00
59531;BME280;45349;48.692;8.186;2023-02-03T08:18:21;100085.56;;;5.66;99.92
59531;BME280;45349;48.692;8.186;2023-02-03T08:20:49;100080.28;;;5.67;100.00
59531;BME280;45349;48.692;8.186;2023-02-03T08:23:16;100087.84;;;5.72;100.00
59531;BME280;45349;48.692;8.186;2023-02-03T08:25:42;100090.81;;;5.64;100.00
59531;BME280;45349;48.692;8.186;2023-02-03T08:28:09;100088.75;;;5.71;100.00
59531;BME280;45349;48.692;8.186;2023-02-03T08:30:35;100082.56;;;5.73;100.00
59531;BME280;45349;48.692;8.186;2023-02-03T08:33:02;100074.19;;;5.68;100.00
59531;BME280;45349;48.692;8.186;2023-02-03T08:35:29;100072.28;;;5.72;100.00
59531;BME280;45349;48.692;8.186;2023-02-03T08:37:57;100091.19;;;5.74;99.30
59531;BME280;45349;48.692;8.186;2023-02-03T08:40:23;100099.59;;;5.78;98.71
59531;BME280;45349;48.692;8.186;2023-02-03T08:42:50;100103.81;;;5.80;99.55
59531;BME280;45349;48.692;8.186;2023-02-03T08:45:16;100107.47;;;5.76;100.00
59531;BME280;45349;48.692;8.186;2023-02-03T08:47:43;100112.72;;;5.74;100.00
59531;BME280;45349;48.692;8.186;2023-02-03T08:50:10;100119.56;;;5.75;100.00
59531;BME280;45349;48.692;8.186;2023-02-03T08:52:37;100123.34;;;5.70;100.00
59531;BME280;45349;48.692;8.186;2023-02-03T08:55:06;100115.25;;;5.76;100.00
59531;BME280;45349;48.692;8.186;2023-02-03T08:57:33;100110.72;;;5.80;100.00
59531;BME280;45349;48.692;8.186;2023-02-03T09:00:00;100110.88;;;5.76;100.00
59531;BME280;45349;48.692;8.186;2023-02-03T09:02:27;100125.34;;;5.81;100.00
59531;BME280;45349;48.692;8.186;2023-02-03T09:04:53;100133.72;;;5.70;100.00
59531;BME280;45349;48.692;8.186;2023-02-03T09:07:20;100124.75;;;5.75;100.00
59531;BME280;45349;48.692;8.186;2023-02-03T09:09:47;100106.72;;;5.74;100.00
59531;BME280;45349;48.692;8.186;2023-02-03T09:12:15;100110.56;;;5.67;100.00
59531;BME280;45349;48.692;8.186;2023-02-03T09:14:42;100122.28;;;5.74;100.00
59531;BME280;45349;48.692;8.186;2023-02-03T09:17:09;100112.72;;;5.74;100.00
59531;BME280;45349;48.692;8.186;2023-02-03T09:19:35;100114.72;;;5.69;100.00
59531;BME280;45349;48.692;8.186;2023-02-03T09:22:02;100093.50;;;5.79;100.00
59531;BME280;45349;48.692;8.186;2023-02-03T09:24:29;100100.44;;;5.78;100.00
59531;BME280;45349;48.692;8.186;2023-02-03T09:26:55;100085.97;;;5.90;100.00
59531;BME280;45349;48.692;8.186;2023-02-03T09:29:23;100083.38;;;6.06;99.23
59531;BME280;45349;48.692;8.186;2023-02-03T09:31:50;100098.19;;;6.04;98.71
59531;BME280;45349;48.692;8.186;2023-02-03T09:34:17;100095.78;;;6.17;98.64
59531;BME280;45349;48.692;8.186;2023-02-03T09:36:45;100093.34;;;6.14;98.37
59531;BME280;45349;48.692;8.186;2023-02-03T09:39:11;100107.38;;;6.26;98.13
59531;BME280;45349;48.692;8.186;2023-02-03T09:41:55;100101.31;;;6.41;97.36
59531;BME280;45349;48.692;8.186;2023-02-03T09:44:33;100090.53;;;6.33;98.35
59531;BME280;45349;48.692;8.186;2023-02-03T09:47:04;100092.50;;;6.44;98.27
59531;BME280;45349;48.692;8.186;2023-02-03T09:49:39;100105.19;;;6.34;97.92
59531;BME280;45349;48.692;8.186;2023-02-03T09:52:10;100106.19;;;6.31;95.59
59531;BME280;45349;48.692;8.186;2023-02-03T09:54:42;100081.66;;;6.07;97.58
59531;BME280;45349;48.692;8.186;2023-02-03T09:57:14;100102.44;;;6.21;96.28
59531;BME280;45349;48.692;8.186;2023-02-03T09:59:44;100097.09;;;6.24;97.36
59531;BME280;45349;48.692;8.186;2023-02-03T10:02:31;100095.50;;;6.22;97.46
59531;BME280;45349;48.692;8.186;2023-02-03T10:05:05;100080.09;;;6.34;96.85
59531;BME280;45349;48.692;8.186;2023-02-03T10:07:41;100072.56;;;6.30;96.05
59531;BME280;45349;48.692;8.186;2023-02-03T10:10:17;100085.69;;;6.27;95.77
59531;BME280;45349;48.692;8.186;2023-02-03T10:12:57;100084.56;;;6.47;93.49
59531;BME280;45349;48.692;8.186;2023-02-03T10:15:58;100072.69;;;6.43;94.29
59531;BME280;45349;48.692;8.186;2023-02-03T10:18:28;100077.91;;;6.57;95.31
59531;BME280;45349;48.692;8.186;2023-02-03T10:20:59;100089.31;;;6.55;93.81
59531;BME280;45349;48.692;8.186;2023-02-03T10:23:30;100085.00;;;6.39;95.93
59531;BME280;45349;48.692;8.186;2023-02-03T10:26:01;100091.50;;;6.46;95.51
59531;BME280;45349;48.692;8.186;2023-02-03T10:28:31;100111.06;;;6.52;94.50
59531;BME280;45349;48.692;8.186;2023-02-03T10:31:07;100110.06;;;6.55;91.52
59531;BME280;45349;48.692;8.186;2023-02-03T10:33:38;100112.50;;;6.58;93.62
59531;BME280;45349;48.692;8.186;2023-02-03T10:36:12;100112.00;;;6.51;93.72
59531;BME280;45349;48.692;8.186;2023-02-03T10:38:48;100109.81;;;6.74;93.97
59531;BME280;45349;48.692;8.186;2023-02-03T10:41:18;100112.78;;;6.68;94.77
59531;BME280;45349;48.692;8.186;2023-02-03T10:43:45;100108.78;;;6.62;92.93
59531;BME280;45349;48.692;8.186;2023-02-03T10:46:14;100106.22;;;6.46;94.17
59531;BME280;45349;48.692;8.186;2023-02-03T10:48:41;100090.84;;;6.43;93.20
59531;BME280;45349;48.692;8.186;2023-02-03T10:51:14;100101.88;;;6.46;94.16
59531;BME280;45349;48.692;8.186;2023-02-03T10:53:43;100099.34;;;6.61;94.92
59531;BME280;45349;48.692;8.186;2023-02-03T10:56:13;100096.47;;;6.65;93.71
59531;BME280;45349;48.692;8.186;2023-02-03T10:58:46;100072.53;;;6.60;92.24
59531;BME280;45349;48.692;8.186;2023-02-03T11:01:16;100094.44;;;6.71;90.33
59531;BME280;45349;48.692;8.186;2023-02-03T11:03:53;100094.19;;;6.75;90.61
59531;BME280;45349;48.692;8.186;2023-02-03T11:06:21;100100.91;;;6.63;91.79
59531;BME280;45349;48.692;8.186;2023-02-03T11:08:49;100087.53;;;7.29;92.46
59531;BME280;45349;48.692;8.186;2023-02-03T11:11:20;100061.19;;;7.21;89.02
59531;BME280;45349;48.692;8.186;2023-02-03T11:13:51;100064.50;;;6.94;90.74
59531;BME280;45349;48.692;8.186;2023-02-03T11:16:19;100081.94;;;6.63;90.19
59531;BME280;45349;48.692;8.186;2023-02-03T11:18:54;100065.31;;;6.65;90.39
59531;BME280;45349;48.692;8.186;2023-02-03T11:21:23;100070.50;;;6.65;92.03
59531;BME280;45349;48.692;8.186;2023-02-03T11:23:59;100085.66;;;6.73;92.57
59531;BME280;45349;48.692;8.186;2023-02-03T11:26:28;100068.78;;;6.66;90.31
59531;BME280;45349;48.692;8.186;2023-02-03T11:28:57;100051.75;;;6.46;91.37
59531;BME280;45349;48.692;8.186;2023-02-03T11:31:28;100046.22;;;6.52;91.57
59531;BME280;45349;48.692;8.186;2023-02-03T11:33:59;100061.63;;;6.70;90.68
59531;BME280;45349;48.692;8.186;2023-02-03T11:36:29;100040.88;;;6.70;88.95
59531;BME280;45349;48.692;8.186;2023-02-03T11:39:25;100025.94;;;6.59;90.83
59531;BME280;45349;48.692;8.186;2023-02-03T11:41:52;100006.00;;;6.59;89.45
59531;BME280;45349;48.692;8.186;2023-02-03T11:44:22;100005.25;;;6.57;89.15
59531;BME280;45349;48.692;8.186;2023-02-03T11:46:55;100033.25;;;6.52;89.51
59531;BME280;45349;48.692;8.186;2023-02-03T11:49:41;100019.34;;;6.53;88.96
59531;BME280;45349;48.692;8.186;2023-02-03T11:55:15;100036.38;;;6.43;90.45
59531;BME280;45349;48.692;8.186;2023-02-03T11:57:51;100046.56;;;6.31;90.51
59531;BME280;45349;48.692;8.186;2023-02-03T12:00:29;100047.38;;;6.32;89.82
59531;BME280;45349;48.692;8.186;2023-02-03T12:03:24;100033.47;;;6.33;91.81
59531;BME280;45349;48.692;8.186;2023-02-03T12:06:10;100028.94;;;6.37;91.68
59531;BME280;45349;48.692;8.186;2023-02-03T12:08:50;100044.16;;;6.43;91.87
59531;BME280;45349;48.692;8.186;2023-02-03T12:11:31;100032.59;;;6.48;92.53
59531;BME280;45349;48.692;8.186;2023-02-03T12:14:13;100029.06;;;6.49;93.69
59531;BME280;45349;48.692;8.186;2023-02-03T12:16:54;100016.19;;;6.48;92.70
59531;BME280;45349;48.692;8.186;2023-02-03T12:19:31;100027.66;;;6.44;92.13
59531;BME280;45349;48.692;8.186;2023-02-03T12:22:07;100026.38;;;6.51;93.00
59531;BME280;45349;48.692;8.186;2023-02-03T12:24:43;100041.34;;;6.62;90.55
59531;BME280;45349;48.692;8.186;2023-02-03T12:27:23;100037.44;;;6.69;90.43
59531;BME280;45349;48.692;8.186;2023-02-03T12:29:55;100029.88;;;6.81;90.34
59531;BME280;45349;48.692;8.186;2023-02-03T12:32:28;100016.97;;;6.79;89.05
59531;BME280;45349;48.692;8.186;2023-02-03T12:35:04;100038.22;;;6.86;89.88
59531;BME280;45349;48.692;8.186;2023-02-03T12:37:42;100020.19;;;6.97;88.41
59531;BME280;45349;48.692;8.186;2023-02-03T12:40:15;100014.66;;;6.89;88.23
59531;BME280;45349;48.692;8.186;2023-02-03T12:42:48;100011.78;;;7.08;88.28
59531;BME280;45349;48.692;8.186;2023-02-03T12:45:20;100027.44;;;6.92;87.86
59531;BME280;45349;48.692;8.186;2023-02-03T12:47:53;100000.72;;;6.90;87.35
59531;BME280;45349;48.692;8.186;2023-02-03T12:50:22;99991.75;;;6.96;87.97
59531;BME280;45349;48.692;8.186;2023-02-03T12:52:57;100002.13;;;6.81;88.65
59531;BME280;45349;48.692;8.186;2023-02-03T12:55:32;100000.66;;;6.77;88.39
59531;BME280;45349;48.692;8.186;2023-02-03T12:58:03;100006.03;;;6.74;89.13
59531;BME280;45349;48.692;8.186;2023-02-03T13:00:38;100010.28;;;6.75;88.73
59531;BME280;45349;48.692;8.186;2023-02-03T13:03:13;100006.22;;;6.71;89.33
59531;BME280;45349;48.692;8.186;2023-02-03T13:05:48;100010.47;;;6.72;89.10
59531;BME280;45349;48.692;8.186;2023-02-03T13:08:28;100013.25;;;6.69;89.23
59531;BME280;45349;48.692;8.186;2023-02-03T13:11:08;100025.59;;;6.79;88.33
59531;BME280;45349;48.692;8.186;2023-02-03T13:13:41;100018.06;;;6.75;89.58
59531;BME280;45349;48.692;8.186;2023-02-03T13:16:10;100012.88;;;6.75;89.03
59531;BME280;45349;48.692;8.186;2023-02-03T13:18:42;100022.06;;;6.66;89.22
59531;BME280;45349;48.692;8.186;2023-02-03T13:21:12;100023.38;;;6.73;88.28
59531;BME280;45349;48.692;8.186;2023-02-03T13:23:41;100024.72;;;6.64;90.10
59531;BME280;45349;48.692;8.186;2023-02-03T13:26:19;100011.03;;;6.62;90.35
59531;BME280;45349;48.692;8.186;2023-02-03T13:29:02;99957.94;;;6.68;89.42